Haverhill, IA (50120)

8:11 AM CDT on October 23, 2014 (GMT -0500)
Marshalltown Municipal | Change Station
CLOSE
Current Station
Airport
Location: Marshalltown,
Elevation: 971 ft
Nearby Weather Stations

Elev 971 ft 42.11 °N, 92.92 °W | Updated 18 minutes ago

Overcast
Overcast
49 °F
Feels Like 49 °F
N
8
Wind Variable Wind from SSE

Today
High -- | Low -- °F
--% Chance of Precip.
Yesterday
High -- | Low -- °F
Precip. -- in
7:33 AM 6:18 PM
Waning Crescent, 0% visible
Pressure 30.04 in
Visibility 10.0 miles
Clouds Scattered Clouds 1700 ft
Mostly Cloudy 2500 ft
Overcast 2900 ft
Dew Point 46 °F
Humidity 90%
Rainfall 0.05 in
Snow Depth Not available.
UV 0 out of 12
Pollen .30 out of 12
Air Quality Not available.
Flu Activity Sporadic
METAR KMIW 231253Z AUTO 16007KT 10SM SCT017 BKN025 OVC029 09/08 A3004 RMK AO2 RAE03 SLP172 P0000 T00940078

More Conditions Fewer Conditions

Pressure 30.04 in
Visibility 10.0 miles
Clouds Scattered Clouds 1700 ft
Mostly Cloudy 2500 ft
Overcast 2900 ft
Dew Point 46 °F
Humidity 90%
Rainfall 0.05 in
Snow Depth Not available.
UV 0 out of 12
Pollen .30 out of 12
Air Quality Not available.
Flu Activity Sporadic
METAR KMIW 231253Z AUTO 16007KT 10SM SCT017 BKN025 OVC029 09/08 A3004 RMK AO2 RAE03 SLP172 P0000 T00940078

More Conditions Fewer Conditions

10-Day Weather Forecast

Almanac

Astronomy

Oct. 23, 2014 Rise Set
Actual Time 7:33 AM CDT 6:18 PM CDT
Civil Twilight 7:05 AM CDT 6:46 PM CDT
Nautical Twilight 6:32 AM CDT 7:19 PM CDT
Astronomical Twilight 6:00 AM CDT 7:51 PM CDT
Moon 7:13 AM CDT 6:20 PM CDT
Length of Visible Light 11h 41m
Length of Day
10h 44m
Tomorrow will be 2m 38s shorter.
Waning Crescent, 0% of the Moon is Illuminated
Today
Waning Crescent
Oct 23
New
Oct 30
First Quarter
Nov 6
Full
Nov 14
Last Quarter

Today's Extremes

State Highs State Lows

Community

WunderPhotos

Upload Photos

1,764,231 photos uploaded!

Nearby

Snow Depth

Station Depth Elevation
No new snow has been reported.

Earthquake Activity

City Distance Mag. Time & Date
No recent earthquake activity has been reported nearby.
Minimum magnitude displayed is 2.5.

Coastal Water Temperatures

Place Temperature
No Stations Reporting

Nearby Weather Stations